Main page
METAR-TAF:

METAR-TAF

Airports :

Melilla Airport

Melilla, Spain

latitude: 35-17N, longitude: 002-57W, elevation: 47 m

Current weather observation

The report was made 25 minutes ago, at 00:00 UTC
Wind 15 kt from the West, varying between Southwest and West/Northwest
Temperature 28°C
Humidity 37%
Pressure 1013 hPa
Visibility 10 km or more
no clouds below 1500 m and no cumulonimbus

METAR: GEML 310000Z AUTO 26015KT 230V290 CAVOK 28/12 Q1013

Time: 02:25 (00:25 UTC)

Forecast

The report was made 1 hour and 25 minutes ago, at 23:00 UTC
Forecast valid from 31 at 00 UTC to 31 at 24 UTC
Wind 15 kt from the West
Visibility 10 km or more
no clouds below 1500 m and no cumulonimbus
Temporary
from 31 at 10 UTC to 31 at 23 UTC
Wind 20 kt from the West with gusts up to 30 kt

TAF: GEML 302300Z 3100/3124 28015KT CAVOK TX30/3113Z TN25/3103Z TEMPO 3110/3123 28020G30KT

Weather observations and forecasts of more than 4000 airports (METAR and TAF reports).

The available stations are represented by yellow and red dots on the map.

Hover mouse over dot to see the name of the station.

Then click to see weather observations and forecasts.

To change the map : click on the green buttons with a black cross to zoom in, on the green button with a dash to zoom out, or on the green arrows for adjacent maps.


METAR-TAF: